sensor_id;sensor_type;location;lat;lon;timestamp;P1;durP1;ratioP1;P2;durP2;ratioP2
56307;SDS011;42217;50.422;7.210;2023-09-18T00:02:20;9.15;;;3.25;;
56307;SDS011;42217;50.422;7.210;2023-09-18T00:04:46;6.00;;;3.33;;
56307;SDS011;42217;50.422;7.210;2023-09-18T00:07:11;6.30;;;2.78;;
56307;SDS011;42217;50.422;7.210;2023-09-18T00:09:37;10.55;;;3.20;;
56307;SDS011;42217;50.422;7.210;2023-09-18T00:12:03;11.35;;;3.35;;
56307;SDS011;42217;50.422;7.210;2023-09-18T00:14:29;12.45;;;4.25;;
56307;SDS011;42217;50.422;7.210;2023-09-18T00:16:54;8.63;;;3.88;;
56307;SDS011;42217;50.422;7.210;2023-09-18T00:19:22;6.38;;;3.45;;
56307;SDS011;42217;50.422;7.210;2023-09-18T00:21:49;4.60;;;2.10;;
56307;SDS011;42217;50.422;7.210;2023-09-18T00:24:17;6.70;;;3.08;;
56307;SDS011;42217;50.422;7.210;2023-09-18T00:26:43;9.35;;;4.10;;
56307;SDS011;42217;50.422;7.210;2023-09-18T00:29:08;13.30;;;3.80;;
56307;SDS011;42217;50.422;7.210;2023-09-18T00:31:34;8.10;;;3.30;;
56307;SDS011;42217;50.422;7.210;2023-09-18T00:33:59;19.00;;;4.22;;
56307;SDS011;42217;50.422;7.210;2023-09-18T00:36:25;9.52;;;3.70;;
56307;SDS011;42217;50.422;7.210;2023-09-18T00:38:51;10.60;;;3.50;;
56307;SDS011;42217;50.422;7.210;2023-09-18T00:41:16;8.45;;;4.32;;
56307;SDS011;42217;50.422;7.210;2023-09-18T00:43:42;17.02;;;3.88;;
56307;SDS011;42217;50.422;7.210;2023-09-18T00:46:08;9.27;;;4.13;;
56307;SDS011;42217;50.422;7.210;2023-09-18T00:48:34;11.52;;;4.28;;
56307;SDS011;42217;50.422;7.210;2023-09-18T00:50:59;10.50;;;3.50;;
56307;SDS011;42217;50.422;7.210;2023-09-18T00:53:27;12.80;;;4.25;;
56307;SDS011;42217;50.422;7.210;2023-09-18T00:55:53;9.32;;;3.70;;
56307;SDS011;42217;50.422;7.210;2023-09-18T00:58:21;8.77;;;3.47;;
56307;SDS011;42217;50.422;7.210;2023-09-18T01:00:47;6.97;;;3.10;;
56307;SDS011;42217;50.422;7.210;2023-09-18T01:03:15;10.73;;;3.70;;
56307;SDS011;42217;50.422;7.210;2023-09-18T01:05:43;9.93;;;4.10;;
56307;SDS011;42217;50.422;7.210;2023-09-18T01:08:10;7.82;;;3.38;;
56307;SDS011;42217;50.422;7.210;2023-09-18T01:13:41;11.48;;;4.15;;
56307;SDS011;42217;50.422;7.210;2023-09-18T01:16:15;9.82;;;3.55;;
56307;SDS011;42217;50.422;7.210;2023-09-18T01:18:49;10.82;;;4.00;;
56307;SDS011;42217;50.422;7.210;2023-09-18T01:21:15;6.80;;;3.45;;
56307;SDS011;42217;50.422;7.210;2023-09-18T01:23:43;4.57;;;2.83;;
56307;SDS011;42217;50.422;7.210;2023-09-18T01:26:09;7.50;;;2.88;;
56307;SDS011;42217;50.422;7.210;2023-09-18T01:28:34;14.95;;;3.28;;
56307;SDS011;42217;50.422;7.210;2023-09-18T01:31:00;8.20;;;3.20;;
56307;SDS011;42217;50.422;7.210;2023-09-18T01:33:26;9.27;;;3.45;;
56307;SDS011;42217;50.422;7.210;2023-09-18T01:35:52;8.68;;;3.00;;
56307;SDS011;42217;50.422;7.210;2023-09-18T01:38:20;11.38;;;3.47;;
56307;SDS011;42217;50.422;7.210;2023-09-18T01:40:47;5.93;;;2.95;;
56307;SDS011;42217;50.422;7.210;2023-09-18T01:43:13;17.42;;;2.50;;
56307;SDS011;42217;50.422;7.210;2023-09-18T01:45:39;10.80;;;3.05;;
56307;SDS011;42217;50.422;7.210;2023-09-18T01:48:05;21.23;;;3.38;;
56307;SDS011;42217;50.422;7.210;2023-09-18T01:50:31;12.68;;;3.08;;
56307;SDS011;42217;50.422;7.210;2023-09-18T01:52:58;15.85;;;4.10;;
56307;SDS011;42217;50.422;7.210;2023-09-18T01:55:24;11.85;;;2.70;;
56307;SDS011;42217;50.422;7.210;2023-09-18T01:57:49;17.58;;;4.13;;
56307;SDS011;42217;50.422;7.210;2023-09-18T02:00:15;10.90;;;3.10;;
56307;SDS011;42217;50.422;7.210;2023-09-18T02:02:41;17.05;;;3.45;;
56307;SDS011;42217;50.422;7.210;2023-09-18T02:05:06;13.10;;;4.28;;
56307;SDS011;42217;50.422;7.210;2023-09-18T02:07:32;9.48;;;3.67;;
56307;SDS011;42217;50.422;7.210;2023-09-18T02:09:59;17.30;;;3.38;;
56307;SDS011;42217;50.422;7.210;2023-09-18T02:12:24;14.90;;;3.45;;
56307;SDS011;42217;50.422;7.210;2023-09-18T02:14:50;7.22;;;3.22;;
56307;SDS011;42217;50.422;7.210;2023-09-18T02:17:16;13.35;;;3.85;;
56307;SDS011;42217;50.422;7.210;2023-09-18T02:19:41;13.73;;;4.07;;
56307;SDS011;42217;50.422;7.210;2023-09-18T02:22:08;18.60;;;4.35;;
56307;SDS011;42217;50.422;7.210;2023-09-18T02:24:34;14.38;;;3.35;;
56307;SDS011;42217;50.422;7.210;2023-09-18T02:26:59;10.57;;;4.57;;
56307;SDS011;42217;50.422;7.210;2023-09-18T02:29:25;11.70;;;3.53;;
56307;SDS011;42217;50.422;7.210;2023-09-18T02:31:51;13.85;;;3.47;;
56307;SDS011;42217;50.422;7.210;2023-09-18T02:34:17;12.73;;;4.30;;
56307;SDS011;42217;50.422;7.210;2023-09-18T02:36:44;15.07;;;4.25;;
56307;SDS011;42217;50.422;7.210;2023-09-18T02:39:09;10.77;;;3.88;;
56307;SDS011;42217;50.422;7.210;2023-09-18T02:41:35;13.35;;;3.60;;
56307;SDS011;42217;50.422;7.210;2023-09-18T02:44:01;10.80;;;3.38;;
56307;SDS011;42217;50.422;7.210;2023-09-18T02:46:26;15.82;;;2.88;;
56307;SDS011;42217;50.422;7.210;2023-09-18T02:48:52;15.27;;;4.15;;
56307;SDS011;42217;50.422;7.210;2023-09-18T02:51:18;17.55;;;3.88;;
56307;SDS011;42217;50.422;7.210;2023-09-18T02:53:44;13.93;;;4.50;;
56307;SDS011;42217;50.422;7.210;2023-09-18T02:56:10;17.80;;;3.30;;
56307;SDS011;42217;50.422;7.210;2023-09-18T02:58:35;17.88;;;3.50;;
56307;SDS011;42217;50.422;7.210;2023-09-18T03:01:01;23.52;;;3.67;;
56307;SDS011;42217;50.422;7.210;2023-09-18T03:03:29;11.23;;;3.95;;
56307;SDS011;42217;50.422;7.210;2023-09-18T03:05:59;15.55;;;3.63;;
56307;SDS011;42217;50.422;7.210;2023-09-18T03:08:30;23.02;;;5.07;;
56307;SDS011;42217;50.422;7.210;2023-09-18T03:10:55;11.73;;;3.40;;
56307;SDS011;42217;50.422;7.210;2023-09-18T03:13:21;7.78;;;2.90;;
56307;SDS011;42217;50.422;7.210;2023-09-18T03:15:47;23.17;;;3.80;;
56307;SDS011;42217;50.422;7.210;2023-09-18T03:18:13;12.20;;;3.72;;
56307;SDS011;42217;50.422;7.210;2023-09-18T03:20:39;14.55;;;4.18;;
56307;SDS011;42217;50.422;7.210;2023-09-18T03:23:05;16.08;;;3.15;;
56307;SDS011;42217;50.422;7.210;2023-09-18T03:25:31;13.88;;;3.25;;
56307;SDS011;42217;50.422;7.210;2023-09-18T03:27:57;18.88;;;3.97;;
56307;SDS011;42217;50.422;7.210;2023-09-18T03:30:23;20.70;;;4.90;;
56307;SDS011;42217;50.422;7.210;2023-09-18T03:32:49;14.93;;;4.45;;
56307;SDS011;42217;50.422;7.210;2023-09-18T03:35:15;18.92;;;3.58;;
56307;SDS011;42217;50.422;7.210;2023-09-18T03:37:44;12.80;;;3.60;;
56307;SDS011;42217;50.422;7.210;2023-09-18T03:40:10;10.52;;;3.05;;
56307;SDS011;42217;50.422;7.210;2023-09-18T03:42:36;14.60;;;4.03;;
56307;SDS011;42217;50.422;7.210;2023-09-18T03:45:03;16.63;;;2.63;;
56307;SDS011;42217;50.422;7.210;2023-09-18T03:47:30;14.20;;;4.32;;
56307;SDS011;42217;50.422;7.210;2023-09-18T03:49:56;14.98;;;3.42;;
56307;SDS011;42217;50.422;7.210;2023-09-18T03:52:22;8.77;;;2.42;;
56307;SDS011;42217;50.422;7.210;2023-09-18T03:54:47;12.55;;;2.35;;
56307;SDS011;42217;50.422;7.210;2023-09-18T03:57:13;9.07;;;2.47;;
56307;SDS011;42217;50.422;7.210;2023-09-18T03:59:38;5.93;;;2.08;;
56307;SDS011;42217;50.422;7.210;2023-09-18T04:02:04;7.97;;;2.25;;
56307;SDS011;42217;50.422;7.210;2023-09-18T04:04:30;10.02;;;2.03;;
56307;SDS011;42217;50.422;7.210;2023-09-18T04:06:57;8.45;;;2.03;;
56307;SDS011;42217;50.422;7.210;2023-09-18T04:09:23;10.95;;;2.55;;
56307;SDS011;42217;50.422;7.210;2023-09-18T04:11:48;16.13;;;2.75;;
56307;SDS011;42217;50.422;7.210;2023-09-18T04:14:14;7.90;;;2.15;;
56307;SDS011;42217;50.422;7.210;2023-09-18T04:16:40;10.30;;;2.72;;
56307;SDS011;42217;50.422;7.210;2023-09-18T04:19:07;8.82;;;2.53;;
56307;SDS011;42217;50.422;7.210;2023-09-18T04:21:33;13.98;;;2.15;;
56307;SDS011;42217;50.422;7.210;2023-09-18T04:23:59;10.15;;;2.30;;
56307;SDS011;42217;50.422;7.210;2023-09-18T04:26:25;7.90;;;2.53;;
56307;SDS011;42217;50.422;7.210;2023-09-18T04:28:54;8.02;;;2.25;;
56307;SDS011;42217;50.422;7.210;2023-09-18T04:31:21;5.03;;;2.05;;
56307;SDS011;42217;50.422;7.210;2023-09-18T04:33:46;10.70;;;2.20;;
56307;SDS011;42217;50.422;7.210;2023-09-18T04:36:12;10.60;;;2.97;;
56307;SDS011;42217;50.422;7.210;2023-09-18T04:38:38;10.32;;;2.40;;
56307;SDS011;42217;50.422;7.210;2023-09-18T04:41:03;8.82;;;2.05;;
56307;SDS011;42217;50.422;7.210;2023-09-18T04:43:29;4.88;;;2.30;;
56307;SDS011;42217;50.422;7.210;2023-09-18T04:45:55;14.98;;;3.63;;
56307;SDS011;42217;50.422;7.210;2023-09-18T04:48:21;13.80;;;3.13;;
56307;SDS011;42217;50.422;7.210;2023-09-18T04:50:48;10.60;;;2.63;;
56307;SDS011;42217;50.422;7.210;2023-09-18T04:53:14;7.75;;;2.15;;
56307;SDS011;42217;50.422;7.210;2023-09-18T04:55:39;6.63;;;2.28;;
56307;SDS011;42217;50.422;7.210;2023-09-18T04:58:06;8.10;;;3.03;;
56307;SDS011;42217;50.422;7.210;2023-09-18T05:00:31;14.13;;;2.90;;
56307;SDS011;42217;50.422;7.210;2023-09-18T05:02:58;8.25;;;2.45;;
56307;SDS011;42217;50.422;7.210;2023-09-18T05:05:26;6.57;;;2.90;;
56307;SDS011;42217;50.422;7.210;2023-09-18T05:07:53;8.65;;;2.58;;
56307;SDS011;42217;50.422;7.210;2023-09-18T05:10:19;12.02;;;2.92;;
56307;SDS011;42217;50.422;7.210;2023-09-18T05:12:44;11.02;;;2.97;;
56307;SDS011;42217;50.422;7.210;2023-09-18T05:15:10;9.50;;;3.03;;
56307;SDS011;42217;50.422;7.210;2023-09-18T05:20:07;11.10;;;2.60;;
56307;SDS011;42217;50.422;7.210;2023-09-18T05:22:37;7.13;;;3.03;;
56307;SDS011;42217;50.422;7.210;2023-09-18T05:25:04;8.60;;;2.72;;
56307;SDS011;42217;50.422;7.210;2023-09-18T05:27:32;7.50;;;2.15;;
56307;SDS011;42217;50.422;7.210;2023-09-18T05:29:57;7.68;;;2.53;;
56307;SDS011;42217;50.422;7.210;2023-09-18T05:32:23;4.32;;;1.95;;
56307;SDS011;42217;50.422;7.210;2023-09-18T05:34:49;9.27;;;3.17;;
56307;SDS011;42217;50.422;7.210;2023-09-18T05:37:14;7.00;;;2.70;;
56307;SDS011;42217;50.422;7.210;2023-09-18T05:39:40;4.53;;;1.42;;
56307;SDS011;42217;50.422;7.210;2023-09-18T05:42:06;9.68;;;2.38;;
56307;SDS011;42217;50.422;7.210;2023-09-18T05:44:32;3.30;;;1.65;;
56307;SDS011;42217;50.422;7.210;2023-09-18T05:46:58;7.05;;;1.52;;
56307;SDS011;42217;50.422;7.210;2023-09-18T05:49:24;7.30;;;3.00;;
56307;SDS011;42217;50.422;7.210;2023-09-18T05:51:49;7.50;;;2.28;;
56307;SDS011;42217;50.422;7.210;2023-09-18T05:54:15;7.55;;;1.88;;
56307;SDS011;42217;50.422;7.210;2023-09-18T05:56:41;3.33;;;1.48;;
56307;SDS011;42217;50.422;7.210;2023-09-18T05:59:07;7.55;;;1.60;;
56307;SDS011;42217;50.422;7.210;2023-09-18T06:01:32;5.32;;;1.60;;
56307;SDS011;42217;50.422;7.210;2023-09-18T06:03:58;5.90;;;1.48;;
56307;SDS011;42217;50.422;7.210;2023-09-18T06:06:24;6.95;;;1.30;;
56307;SDS011;42217;50.422;7.210;2023-09-18T06:08:50;7.43;;;2.30;;
56307;SDS011;42217;50.422;7.210;2023-09-18T06:11:18;2.97;;;1.27;;
56307;SDS011;42217;50.422;7.210;2023-09-18T06:13:44;3.35;;;1.10;;
56307;SDS011;42217;50.422;7.210;2023-09-18T06:16:10;4.10;;;1.77;;
56307;SDS011;42217;50.422;7.210;2023-09-18T06:18:36;2.83;;;1.15;;
56307;SDS011;42217;50.422;7.210;2023-09-18T06:21:03;4.90;;;2.08;;
56307;SDS011;42217;50.422;7.210;2023-09-18T06:23:29;6.10;;;1.30;;
56307;SDS011;42217;50.422;7.210;2023-09-18T06:25:55;5.20;;;1.40;;
56307;SDS011;42217;50.422;7.210;2023-09-18T06:28:22;5.78;;;1.15;;
56307;SDS011;42217;50.422;7.210;2023-09-18T06:30:48;6.78;;;1.20;;
56307;SDS011;42217;50.422;7.210;2023-09-18T06:33:13;5.25;;;0.85;;
56307;SDS011;42217;50.422;7.210;2023-09-18T06:35:39;8.48;;;1.58;;
56307;SDS011;42217;50.422;7.210;2023-09-18T06:38:06;6.50;;;2.60;;
56307;SDS011;42217;50.422;7.210;2023-09-18T06:40:35;9.40;;;2.03;;
56307;SDS011;42217;50.422;7.210;2023-09-18T06:43:01;9.45;;;2.05;;
56307;SDS011;42217;50.422;7.210;2023-09-18T06:45:27;5.75;;;1.40;;
56307;SDS011;42217;50.422;7.210;2023-09-18T06:47:55;5.72;;;1.13;;
56307;SDS011;42217;50.422;7.210;2023-09-18T06:50:21;3.97;;;1.25;;
56307;SDS011;42217;50.422;7.210;2023-09-18T06:52:47;4.90;;;1.38;;
56307;SDS011;42217;50.422;7.210;2023-09-18T06:55:12;5.50;;;1.10;;
56307;SDS011;42217;50.422;7.210;2023-09-18T06:57:38;6.95;;;1.25;;
56307;SDS011;42217;50.422;7.210;2023-09-18T07:00:06;4.80;;;1.23;;
56307;SDS011;42217;50.422;7.210;2023-09-18T07:02:32;5.10;;;1.88;;
56307;SDS011;42217;50.422;7.210;2023-09-18T07:04:58;5.35;;;1.00;;
56307;SDS011;42217;50.422;7.210;2023-09-18T07:07:23;6.53;;;0.90;;
56307;SDS011;42217;50.422;7.210;2023-09-18T07:09:50;5.00;;;1.08;;
56307;SDS011;42217;50.422;7.210;2023-09-18T07:12:16;7.53;;;2.22;;
56307;SDS011;42217;50.422;7.210;2023-09-18T07:14:45;5.72;;;1.42;;
56307;SDS011;42217;50.422;7.210;2023-09-18T07:17:12;5.78;;;1.00;;
56307;SDS011;42217;50.422;7.210;2023-09-18T07:19:37;3.63;;;1.08;;
56307;SDS011;42217;50.422;7.210;2023-09-18T07:22:03;2.30;;;0.88;;
56307;SDS011;42217;50.422;7.210;2023-09-18T07:24:29;2.20;;;1.00;;
56307;SDS011;42217;50.422;7.210;2023-09-18T07:26:55;2.95;;;1.00;;
56307;SDS011;42217;50.422;7.210;2023-09-18T07:29:22;5.60;;;1.08;;
56307;SDS011;42217;50.422;7.210;2023-09-18T07:31:50;3.60;;;1.20;;
56307;SDS011;42217;50.422;7.210;2023-09-18T07:34:16;6.97;;;1.77;;
56307;SDS011;42217;50.422;7.210;2023-09-18T07:36:43;4.50;;;1.40;;
56307;SDS011;42217;50.422;7.210;2023-09-18T07:39:09;4.78;;;1.13;;
56307;SDS011;42217;50.422;7.210;2023-09-18T07:41:36;7.20;;;1.08;;
56307;SDS011;42217;50.422;7.210;2023-09-18T07:44:02;8.60;;;1.40;;
56307;SDS011;42217;50.422;7.210;2023-09-18T07:46:28;5.65;;;1.08;;
56307;SDS011;42217;50.422;7.210;2023-09-18T07:48:54;4.20;;;1.27;;
56307;SDS011;42217;50.422;7.210;2023-09-18T07:51:20;8.10;;;1.00;;
56307;SDS011;42217;50.422;7.210;2023-09-18T07:53:46;4.55;;;2.08;;
56307;SDS011;42217;50.422;7.210;2023-09-18T07:56:12;5.70;;;1.40;;
56307;SDS011;42217;50.422;7.210;2023-09-18T07:58:38;4.88;;;1.55;;
56307;SDS011;42217;50.422;7.210;2023-09-18T08:01:04;4.72;;;1.40;;
56307;SDS011;42217;50.422;7.210;2023-09-18T08:03:30;3.83;;;1.35;;
56307;SDS011;42217;50.422;7.210;2023-09-18T08:05:57;5.20;;;1.00;;
56307;SDS011;42217;50.422;7.210;2023-09-18T08:08:23;2.30;;;1.15;;
56307;SDS011;42217;50.422;7.210;2023-09-18T08:10:50;5.28;;;1.27;;
56307;SDS011;42217;50.422;7.210;2023-09-18T08:13:16;4.25;;;1.00;;
56307;SDS011;42217;50.422;7.210;2023-09-18T08:15:42;4.68;;;1.55;;
56307;SDS011;42217;50.422;7.210;2023-09-18T08:18:08;6.10;;;1.13;;
56307;SDS011;42217;50.422;7.210;2023-09-18T08:20:36;5.22;;;1.67;;
56307;SDS011;42217;50.422;7.210;2023-09-18T08:23:05;3.80;;;1.35;;
56307;SDS011;42217;50.422;7.210;2023-09-18T08:25:31;4.53;;;1.05;;
56307;SDS011;42217;50.422;7.210;2023-09-18T08:27:57;4.22;;;2.55;;
56307;SDS011;42217;50.422;7.210;2023-09-18T08:30:23;5.90;;;1.20;;
56307;SDS011;42217;50.422;7.210;2023-09-18T08:32:49;3.95;;;0.63;;
56307;SDS011;42217;50.422;7.210;2023-09-18T08:35:15;5.03;;;0.70;;
56307;SDS011;42217;50.422;7.210;2023-09-18T08:37:41;3.25;;;1.00;;
56307;SDS011;42217;50.422;7.210;2023-09-18T08:40:09;3.45;;;1.20;;
56307;SDS011;42217;50.422;7.210;2023-09-18T08:42:36;5.03;;;0.95;;
56307;SDS011;42217;50.422;7.210;2023-09-18T08:45:08;6.88;;;1.00;;
56307;SDS011;42217;50.422;7.210;2023-09-18T08:47:35;4.15;;;0.70;;
56307;SDS011;42217;50.422;7.210;2023-09-18T08:50:05;4.75;;;1.05;;
56307;SDS011;42217;50.422;7.210;2023-09-18T08:52:35;7.57;;;1.77;;
56307;SDS011;42217;50.422;7.210;2023-09-18T08:55:02;2.95;;;0.80;;
56307;SDS011;42217;50.422;7.210;2023-09-18T08:57:29;3.25;;;1.67;;
56307;SDS011;42217;50.422;7.210;2023-09-18T08:59:55;4.03;;;1.13;;
56307;SDS011;42217;50.422;7.210;2023-09-18T09:02:23;3.17;;;1.17;;
56307;SDS011;42217;50.422;7.210;2023-09-18T09:04:48;2.60;;;0.90;;
56307;SDS011;42217;50.422;7.210;2023-09-18T09:07:15;2.85;;;1.15;;
56307;SDS011;42217;50.422;7.210;2023-09-18T09:09:41;10.00;;;1.30;;
56307;SDS011;42217;50.422;7.210;2023-09-18T09:12:07;6.82;;;0.95;;
56307;SDS011;42217;50.422;7.210;2023-09-18T09:14:33;5.22;;;0.70;;
56307;SDS011;42217;50.422;7.210;2023-09-18T09:17:00;3.28;;;1.02;;
56307;SDS011;42217;50.422;7.210;2023-09-18T09:19:31;4.57;;;1.20;;
56307;SDS011;42217;50.422;7.210;2023-09-18T09:22:00;4.25;;;1.13;;
56307;SDS011;42217;50.422;7.210;2023-09-18T09:24:36;5.72;;;1.85;;
56307;SDS011;42217;50.422;7.210;2023-09-18T09:27:05;6.22;;;1.20;;
56307;SDS011;42217;50.422;7.210;2023-09-18T09:29:30;2.17;;;0.82;;
56307;SDS011;42217;50.422;7.210;2023-09-18T09:31:56;4.40;;;0.95;;
56307;SDS011;42217;50.422;7.210;2023-09-18T09:34:43;3.17;;;1.13;;
56307;SDS011;42217;50.422;7.210;2023-09-18T09:37:10;2.83;;;1.10;;
56307;SDS011;42217;50.422;7.210;2023-09-18T09:39:45;4.57;;;0.90;;
56307;SDS011;42217;50.422;7.210;2023-09-18T09:42:17;2.97;;;1.20;;
56307;SDS011;42217;50.422;7.210;2023-09-18T09:45:01;5.13;;;1.00;;
56307;SDS011;42217;50.422;7.210;2023-09-18T09:47:32;5.50;;;1.02;;
56307;SDS011;42217;50.422;7.210;2023-09-18T09:50:19;3.42;;;1.35;;
56307;SDS011;42217;50.422;7.210;2023-09-18T09:52:48;4.88;;;0.88;;
56307;SDS011;42217;50.422;7.210;2023-09-18T09:57:57;1.75;;;1.00;;
56307;SDS011;42217;50.422;7.210;2023-09-18T10:03:30;1.92;;;0.85;;
56307;SDS011;42217;50.422;7.210;2023-09-18T10:05:58;2.38;;;0.55;;
56307;SDS011;42217;50.422;7.210;2023-09-18T10:08:26;4.60;;;1.35;;
56307;SDS011;42217;50.422;7.210;2023-09-18T10:10:56;6.65;;;0.90;;
56307;SDS011;42217;50.422;7.210;2023-09-18T10:15:58;2.40;;;0.82;;
56307;SDS011;42217;50.422;7.210;2023-09-18T10:24:03;1.98;;;0.80;;
56307;SDS011;42217;50.422;7.210;2023-09-18T10:26:48;4.72;;;0.85;;
56307;SDS011;42217;50.422;7.210;2023-09-18T10:29:20;2.55;;;0.68;;
56307;SDS011;42217;50.422;7.210;2023-09-18T10:31:51;5.60;;;0.57;;
56307;SDS011;42217;50.422;7.210;2023-09-18T10:34:18;2.55;;;1.10;;
56307;SDS011;42217;50.422;7.210;2023-09-18T10:36:48;2.90;;;0.77;;
56307;SDS011;42217;50.422;7.210;2023-09-18T10:39:15;3.63;;;0.75;;
56307;SDS011;42217;50.422;7.210;2023-09-18T10:41:51;2.65;;;0.95;;
56307;SDS011;42217;50.422;7.210;2023-09-18T10:44:18;5.05;;;1.08;;
56307;SDS011;42217;50.422;7.210;2023-09-18T10:46:45;2.10;;;0.95;;
56307;SDS011;42217;50.422;7.210;2023-09-18T10:49:15;2.20;;;0.82;;
56307;SDS011;42217;50.422;7.210;2023-09-18T10:51:41;5.38;;;0.80;;
56307;SDS011;42217;50.422;7.210;2023-09-18T10:54:08;4.57;;;0.95;;
56307;SDS011;42217;50.422;7.210;2023-09-18T10:56:35;3.72;;;0.75;;
56307;SDS011;42217;50.422;7.210;2023-09-18T10:59:01;2.17;;;0.80;;
56307;SDS011;42217;50.422;7.210;2023-09-18T11:01:30;2.75;;;1.10;;
56307;SDS011;42217;50.422;7.210;2023-09-18T11:04:17;0.82;;;0.50;;
56307;SDS011;42217;50.422;7.210;2023-09-18T11:11:54;2.35;;;0.90;;
56307;SDS011;42217;50.422;7.210;2023-09-18T11:20:08;3.95;;;0.88;;
56307;SDS011;42217;50.422;7.210;2023-09-18T11:22:49;2.22;;;0.80;;
56307;SDS011;42217;50.422;7.210;2023-09-18T11:28:02;2.35;;;1.00;;
56307;SDS011;42217;50.422;7.210;2023-09-18T11:30:28;1.90;;;1.00;;
56307;SDS011;42217;50.422;7.210;2023-09-18T11:32:54;2.38;;;0.90;;
56307;SDS011;42217;50.422;7.210;2023-09-18T11:35:21;3.53;;;1.35;;
56307;SDS011;42217;50.422;7.210;2023-09-18T11:37:47;2.95;;;1.13;;
56307;SDS011;42217;50.422;7.210;2023-09-18T11:40:30;5.10;;;1.52;;
56307;SDS011;42217;50.422;7.210;2023-09-18T11:45:48;3.90;;;1.27;;
56307;SDS011;42217;50.422;7.210;2023-09-18T11:48:16;1.92;;;0.68;;
56307;SDS011;42217;50.422;7.210;2023-09-18T11:50:43;2.65;;;0.70;;
56307;SDS011;42217;50.422;7.210;2023-09-18T11:53:10;2.92;;;1.17;;
56307;SDS011;42217;50.422;7.210;2023-09-18T11:55:38;2.97;;;1.15;;
56307;SDS011;42217;50.422;7.210;2023-09-18T11:58:05;2.83;;;0.98;;
56307;SDS011;42217;50.422;7.210;2023-09-18T12:00:34;4.50;;;1.00;;
56307;SDS011;42217;50.422;7.210;2023-09-18T12:03:14;2.83;;;0.60;;
56307;SDS011;42217;50.422;7.210;2023-09-18T12:06:00;2.20;;;1.30;;
56307;SDS011;42217;50.422;7.210;2023-09-18T12:08:30;1.70;;;1.13;;
56307;SDS011;42217;50.422;7.210;2023-09-18T12:10:57;3.05;;;1.33;;
56307;SDS011;42217;50.422;7.210;2023-09-18T12:13:26;3.28;;;1.35;;
56307;SDS011;42217;50.422;7.210;2023-09-18T12:15:56;1.90;;;0.90;;
56307;SDS011;42217;50.422;7.210;2023-09-18T12:18:24;1.10;;;0.80;;
56307;SDS011;42217;50.422;7.210;2023-09-18T12:20:50;7.35;;;1.77;;
56307;SDS011;42217;50.422;7.210;2023-09-18T12:23:16;2.75;;;1.83;;
56307;SDS011;42217;50.422;7.210;2023-09-18T12:25:46;2.72;;;0.80;;
56307;SDS011;42217;50.422;7.210;2023-09-18T12:28:14;2.88;;;0.80;;
56307;SDS011;42217;50.422;7.210;2023-09-18T12:30:41;3.20;;;0.90;;
56307;SDS011;42217;50.422;7.210;2023-09-18T12:33:08;2.97;;;0.98;;
56307;SDS011;42217;50.422;7.210;2023-09-18T12:35:34;3.92;;;0.82;;
56307;SDS011;42217;50.422;7.210;2023-09-18T12:38:01;1.10;;;0.60;;
56307;SDS011;42217;50.422;7.210;2023-09-18T12:40:29;7.10;;;1.27;;
56307;SDS011;42217;50.422;7.210;2023-09-18T12:42:58;3.00;;;1.13;;
56307;SDS011;42217;50.422;7.210;2023-09-18T12:45:28;3.22;;;0.77;;
56307;SDS011;42217;50.422;7.210;2023-09-18T12:47:55;2.70;;;0.80;;
56307;SDS011;42217;50.422;7.210;2023-09-18T12:50:22;2.85;;;0.73;;
56307;SDS011;42217;50.422;7.210;2023-09-18T12:52:48;7.70;;;1.20;;
56307;SDS011;42217;50.422;7.210;2023-09-18T12:55:23;5.47;;;1.02;;
56307;SDS011;42217;50.422;7.210;2023-09-18T12:57:50;2.72;;;1.20;;
56307;SDS011;42217;50.422;7.210;2023-09-18T13:00:18;4.75;;;1.55;;
56307;SDS011;42217;50.422;7.210;2023-09-18T13:02:46;4.18;;;0.93;;
56307;SDS011;42217;50.422;7.210;2023-09-18T13:05:12;3.20;;;1.10;;
56307;SDS011;42217;50.422;7.210;2023-09-18T13:07:45;3.15;;;0.75;;
56307;SDS011;42217;50.422;7.210;2023-09-18T13:10:12;4.45;;;0.85;;
56307;SDS011;42217;50.422;7.210;2023-09-18T13:12:46;3.00;;;0.80;;
56307;SDS011;42217;50.422;7.210;2023-09-18T13:15:12;1.10;;;0.75;;
56307;SDS011;42217;50.422;7.210;2023-09-18T13:17:39;3.90;;;0.80;;
56307;SDS011;42217;50.422;7.210;2023-09-18T13:20:21;5.53;;;1.38;;
56307;SDS011;42217;50.422;7.210;2023-09-18T13:22:57;1.92;;;0.88;;
56307;SDS011;42217;50.422;7.210;2023-09-18T13:25:29;2.08;;;1.00;;
56307;SDS011;42217;50.422;7.210;2023-09-18T13:27:56;7.53;;;1.40;;
56307;SDS011;42217;50.422;7.210;2023-09-18T13:30:22;6.03;;;0.82;;
56307;SDS011;42217;50.422;7.210;2023-09-18T13:32:48;3.13;;;0.95;;
56307;SDS011;42217;50.422;7.210;2023-09-18T13:35:18;2.28;;;1.20;;
56307;SDS011;42217;50.422;7.210;2023-09-18T13:37:44;8.90;;;1.23;;
56307;SDS011;42217;50.422;7.210;2023-09-18T13:40:11;3.38;;;0.93;;
56307;SDS011;42217;50.422;7.210;2023-09-18T13:42:39;3.03;;;0.70;;
56307;SDS011;42217;50.422;7.210;2023-09-18T13:45:05;1.27;;;0.65;;
56307;SDS011;42217;50.422;7.210;2023-09-18T13:47:32;3.97;;;0.70;;
56307;SDS011;42217;50.422;7.210;2023-09-18T13:50:02;4.63;;;0.98;;
56307;SDS011;42217;50.422;7.210;2023-09-18T13:52:30;7.60;;;0.75;;
56307;SDS011;42217;50.422;7.210;2023-09-18T13:54:57;1.10;;;0.57;;
56307;SDS011;42217;50.422;7.210;2023-09-18T13:57:23;2.42;;;0.88;;
56307;SDS011;42217;50.422;7.210;2023-09-18T13:59:50;2.45;;;0.57;;
56307;SDS011;42217;50.422;7.210;2023-09-18T14:02:16;4.47;;;1.80;;
56307;SDS011;42217;50.422;7.210;2023-09-18T14:04:43;5.18;;;1.48;;
56307;SDS011;42217;50.422;7.210;2023-09-18T14:07:09;4.43;;;0.75;;
56307;SDS011;42217;50.422;7.210;2023-09-18T14:09:36;4.45;;;1.02;;
56307;SDS011;42217;50.422;7.210;2023-09-18T14:12:03;2.38;;;0.80;;
56307;SDS011;42217;50.422;7.210;2023-09-18T14:14:32;2.55;;;0.60;;
56307;SDS011;42217;50.422;7.210;2023-09-18T14:16:58;3.45;;;0.60;;
56307;SDS011;42217;50.422;7.210;2023-09-18T14:19:24;2.22;;;0.50;;
56307;SDS011;42217;50.422;7.210;2023-09-18T14:21:50;6.22;;;0.80;;
56307;SDS011;42217;50.422;7.210;2023-09-18T14:24:17;5.07;;;0.60;;
56307;SDS011;42217;50.422;7.210;2023-09-18T14:26:49;2.55;;;0.77;;
56307;SDS011;42217;50.422;7.210;2023-09-18T14:29:15;2.22;;;0.77;;
56307;SDS011;42217;50.422;7.210;2023-09-18T14:31:41;0.75;;;0.73;;
56307;SDS011;42217;50.422;7.210;2023-09-18T14:34:07;2.70;;;0.80;;
56307;SDS011;42217;50.422;7.210;2023-09-18T14:36:36;6.38;;;0.95;;
56307;SDS011;42217;50.422;7.210;2023-09-18T14:39:04;2.13;;;1.20;;
56307;SDS011;42217;50.422;7.210;2023-09-18T14:41:30;1.25;;;0.60;;
56307;SDS011;42217;50.422;7.210;2023-09-18T14:43:57;1.60;;;0.60;;
56307;SDS011;42217;50.422;7.210;2023-09-18T14:46:24;1.27;;;0.35;;
56307;SDS011;42217;50.422;7.210;2023-09-18T14:48:49;1.92;;;0.65;;
56307;SDS011;42217;50.422;7.210;2023-09-18T14:51:15;1.83;;;0.63;;
56307;SDS011;42217;50.422;7.210;2023-09-18T14:53:41;2.85;;;0.68;;
56307;SDS011;42217;50.422;7.210;2023-09-18T14:56:07;3.42;;;0.52;;
56307;SDS011;42217;50.422;7.210;2023-09-18T14:58:33;1.70;;;0.90;;
56307;SDS011;42217;50.422;7.210;2023-09-18T15:00:58;10.50;;;1.92;;
56307;SDS011;42217;50.422;7.210;2023-09-18T15:03:25;1.17;;;0.68;;
56307;SDS011;42217;50.422;7.210;2023-09-18T15:05:51;1.50;;;0.80;;
56307;SDS011;42217;50.422;7.210;2023-09-18T15:08:20;4.53;;;0.95;;
56307;SDS011;42217;50.422;7.210;2023-09-18T15:10:46;2.92;;;0.47;;
56307;SDS011;42217;50.422;7.210;2023-09-18T15:13:12;1.52;;;0.70;;
56307;SDS011;42217;50.422;7.210;2023-09-18T15:15:39;6.05;;;1.25;;
56307;SDS011;42217;50.422;7.210;2023-09-18T15:18:05;3.45;;;0.70;;
56307;SDS011;42217;50.422;7.210;2023-09-18T15:20:31;1.35;;;0.50;;
56307;SDS011;42217;50.422;7.210;2023-09-18T15:22:57;2.22;;;0.70;;